This is the latest recevied weather packets stored in our database for station/object NM5PB-13. If no packets are shown the sender has not sent any weather packets the latest 10 day(s).
| Time | Temp. | Humidity | Pressure | Rain* | Wind** | Luminosity | Snow |
|---|---|---|---|---|---|---|---|
| 1787464500 | 16.67° C | 81% | 1019 hPa | 0 mm | - | - | - |
| 1787463594 | 17.22° C | 81% | 1019 hPa | 0 mm | - | - | - |
| 1787462691 | 17.22° C | 80% | 1018 hPa | 0 mm | - | - | - |
| 1787461787 | 17.22° C | 80% | 1018 hPa | 0 mm | - | - | - |
| 1787460884 | 17.78° C | 79% | 1018 hPa | 0 mm | - | - | - |
| 1787459980 | 17.78° C | 78% | 1018 hPa | 0 mm | - | - | - |
| 1787459074 | 18.33° C | 77% | 1018 hPa | 0 mm | - | - | - |
| 1787458172 | 18.33° C | 76% | 1018 hPa | 0 mm | - | - | - |
| 1787457267 | 18.89° C | 76% | 1018 hPa | 0 mm | - | - | - |
| 1787456363 | 18.89° C | 75% | 1018 hPa | 0 mm | - | - | - |
| 1787455456 | 18.89° C | 75% | 1018 hPa | 0 mm | - | - | - |
| 1787454553 | 19.44° C | 74% | 1018 hPa | 0 mm | - | - | - |
| 1787453649 | 19.44° C | 75% | 1018 hPa | 0 mm | - | - | - |
| 1787452744 | 18.89° C | 80% | 1018 hPa | 0 mm | - | - | - |
| 1787451013 | 18.33° C | 84% | 1018 hPa | 0 mm | - | - | - |
| 1787450107 | 18.33° C | 85% | 1018 hPa | 0 mm | - | - | - |
| 1787449202 | 19.44° C | 83% | 1018 hPa | 0 mm | - | - | - |
| 1787448299 | 20° C | 79% | 1017 hPa | 0 mm | - | - | - |
| 1787447397 | 21.11° C | 74% | 1017 hPa | 0 mm | - | - | - |
| 1787446493 | 22.22° C | 67% | 1017 hPa | 0 mm | - | - | - |
| 1787445587 | 22.78° C | 65% | 1017 hPa | 0 mm | - | - | - |
| 1787444682 | 23.33° C | 62% | 1017 hPa | 0 mm | - | - | - |
| 1787443780 | 23.33° C | 59% | 1017 hPa | 0 mm | - | - | - |
| 1787442874 | 23.89° C | 57% | 1017 hPa | 0 mm | - | - | - |
| 1787441971 | 24.44° C | 55% | 1017 hPa | 0 mm | - | - | - |
* Rain latest hour (hover to see other rain measurements)
** Current wind speed in m/s (hover to see current wind gust speed)